Time;durP1;ratioP1;P1;durP2;ratioP2;P2;SDS_P1;SDS_P2;PMS_P1;PMS_P2;Temp;Humidity;BMP_temperature;BMP_pressure;BME280_temperature;BME280_humidity;BME280_pressure;Samples;Min_cycle;Max_cycle;Signal;HPM_P1;HPM_P2
2022/10/07 00:01:32;;;;;;;;;;;;;;;;;;4976857;28;20516;-77
2022/10/07 00:03:57;;;;;;;18.85;13.48;;;;;;;;;;4986761;28;19914;-78
2022/10/07 00:06:22;;;;;;;;;;;;;;;;;;4973357;28;20035;-77
2022/10/07 00:08:49;;;;;;;15.52;13.13;;;;;;;;;;4965867;28;19910;-78
2022/10/07 00:11:14;;;;;;;15.35;13.15;;;;;;;;;;4962157;28;20027;-78
2022/10/07 00:13:40;;;;;;;;;;;;;;;;;;4978817;28;20095;-77
2022/10/07 00:16:06;;;;;;;16.48;12.52;;;;;;;;;;4977525;28;19925;-78
2022/10/07 00:18:32;;;;;;;18.23;12.48;;;;;;;;;;4974397;28;20019;-77
2022/10/07 00:20:57;;;;;;;;;;;;;;;;;;4965967;28;20039;-78
2022/10/07 00:23:23;;;;;;;14.00;10.32;;;;;;;;;;4964472;28;19962;-78
2022/10/07 00:25:48;;;;;;;;;;;;;;;;;;4961857;28;20550;-78
2022/10/07 00:28:14;;;;;;;15.02;11.23;;;;;;;;;;4955766;28;19933;-78
2022/10/07 00:30:39;;;;;;;;;;;;;;;;;;4961038;28;20425;-78
2022/10/07 00:33:04;;;;;;;15.00;10.95;;;;;;;;;;4959883;28;19910;-78
2022/10/07 00:35:30;;;;;;;;;;;;;;;;;;4977071;28;20031;-77
2022/10/07 00:37:56;;;;;;;16.33;11.57;;;;;;;;;;4958084;28;19910;-77
2022/10/07 00:40:21;;;;;;;;;;;;;;;;;;4988610;28;20034;-78
2022/10/07 00:42:47;;;;;;;14.70;11.43;;;;;;;;;;4975746;28;19918;-78
2022/10/07 00:45:14;;;;;;;14.55;11.02;;;;;;;;;;4955904;28;20049;-78
2022/10/07 00:47:40;;;;;;;15.20;10.98;;;;;;;;;;4978939;28;20034;-79
2022/10/07 00:50:10;;;;;;;16.40;11.43;;;;;;;;;;4976217;28;20165;-78
2022/10/07 00:52:40;;;;;;;20.20;12.05;;;;;;;;;;4964352;28;20129;-78
2022/10/07 00:55:06;;;;;;;15.25;12.00;;;;;;;;;;4976975;28;20042;-78
2022/10/07 00:57:31;;;;;;;16.75;12.07;;;;;;;;;;4976772;28;20026;-78
2022/10/07 00:59:57;;;;;;;;;;;;;;;;;;4975984;28;20027;-78
2022/10/07 01:02:23;;;;;;;18.80;11.55;;;;;;;;;;4981137;28;19948;-78
2022/10/07 01:04:48;;;;;;;;;;;;;;;;;;4971567;28;20046;-78
2022/10/07 01:07:19;;;;;;;17.08;12.05;;;;;;;;;;4982030;28;19924;-78
2022/10/07 01:09:47;;;;;;;21.27;13.00;;;;;;;;;;4971690;28;20030;-78
2022/10/07 01:12:18;;;;;;;16.67;12.75;;;;;;;;;;4991855;28;20236;-78
2022/10/07 01:14:48;;;;;;;19.65;12.65;;;;;;;;;;4976604;28;20047;-78
2022/10/07 01:17:25;;;;;;;20.55;14.00;;;;;;;;;;4992438;28;20098;-78
2022/10/07 01:20:00;;;;;;;19.63;14.05;;;;;;;;;;4974864;28;20031;-78
2022/10/07 01:22:32;;;;;;;20.42;14.23;;;;;;;;;;4988980;28;20038;-78
2022/10/07 01:25:18;;;;;;;15.10;13.40;;;;;;;;;;4973838;28;20512;-78
2022/10/07 01:27:46;;;;;;;17.42;13.90;;;;;;;;;;4984968;28;20045;-78
2022/10/07 01:30:14;;;;;;;16.25;13.65;;;;;;;;;;4954460;28;20045;-78
2022/10/07 01:32:39;;;;;;;;;;;;;;;;;;4965579;28;20034;-78
2022/10/07 01:35:09;;;;;;;17.42;13.82;;;;;;;;;;4966852;28;19990;-78
2022/10/07 01:37:39;;;;;;;20.90;13.75;;;;;;;;;;4980282;28;20034;-78
2022/10/07 01:40:10;;;;;;;19.27;14.27;;;;;;;;;;4953755;28;20050;-78
2022/10/07 01:42:35;;;;;;;21.67;14.13;;;;;;;;;;4995509;28;20034;-78
2022/10/07 01:45:01;;;;;;;;;;;;;;;;;;4980125;28;20043;-78
2022/10/07 01:47:27;;;;;;;23.17;13.93;;;;;;;;;;4973111;28;19921;-77
2022/10/07 01:49:52;;;;;;;;;;;;;;;;;;4988539;28;20038;-78
2022/10/07 01:52:23;;;;;;;19.40;13.48;;;;;;;;;;4972689;28;19914;-78
2022/10/07 01:54:59;;;;;;;20.45;13.07;;;;;;;;;;4984944;28;20084;-77
2022/10/07 01:57:31;;;;;;;18.98;13.82;;;;;;;;;;4996231;28;20027;-78
2022/10/07 02:00:04;;;;;;;20.13;14.50;;;;;;;;;;4954235;28;20401;-78
2022/10/07 02:02:46;;;;;;;19.73;13.30;;;;;;;;;;4974687;28;20042;-77
2022/10/07 02:05:12;;;;;;;20.55;14.45;;;;;;;;;;4983060;28;20498;-77
2022/10/07 02:07:47;;;;;;;19.50;13.98;;;;;;;;;;4957421;28;20040;-78
2022/10/07 02:10:20;;;;;;;25.38;14.30;;;;;;;;;;4993006;28;20043;-78
2022/10/07 02:12:57;;;;;;;20.58;13.48;;;;;;;;;;4979513;28;20039;-78
2022/10/07 02:15:29;;;;;;;20.52;13.50;;;;;;;;;;4972219;28;20049;-77
2022/10/07 02:17:55;;;;;;;20.35;12.70;;;;;;;;;;4975689;28;20491;-78
2022/10/07 02:20:24;;;;;;;20.73;13.38;;;;;;;;;;4948528;28;20061;-78
2022/10/07 02:22:49;;;;;;;19.65;13.30;;;;;;;;;;4975323;28;20050;-79
2022/10/07 02:25:15;;;;;;;;;;;;;;;;;;4953219;28;20065;-78
2022/10/07 02:27:41;;;;;;;22.38;13.00;;;;;;;;;;4989466;28;19981;-78
2022/10/07 02:30:06;;;;;;;;;;;;;;;;;;4969542;28;20031;-78
2022/10/07 02:32:32;;;;;;;21.10;13.15;;;;;;;;;;4984237;28;20317;-78
2022/10/07 02:34:59;;;;;;;20.52;12.90;;;;;;;;;;4974825;28;20396;-78
2022/10/07 02:37:26;;;;;;;25.35;13.70;;;;;;;;;;4982428;28;20178;-78
2022/10/07 02:39:51;;;;;;;;;;;;;;;;;;4984355;28;20105;-78
2022/10/07 02:42:26;;;;;;;22.58;13.68;;;;;;;;;;4973792;28;19925;-78
2022/10/07 02:45:05;;;;;;;19.90;12.63;;;;;;;;;;4974245;28;20414;-79
2022/10/07 02:47:41;;;;;;;19.88;13.07;;;;;;;;;;4945348;28;20126;-78
2022/10/07 02:50:09;;;;;;;19.80;12.80;;;;;;;;;;4956573;28;20058;-77
2022/10/07 02:52:35;;;;;;;23.92;13.55;;;;;;;;;;4941015;28;20063;-77
2022/10/07 02:55:05;;;;;;;23.33;12.90;;;;;;;;;;4988745;28;20122;-78
2022/10/07 02:57:38;;;;;;;22.00;12.73;;;;;;;;;;4959599;28;20031;-78
2022/10/07 03:00:04;;;;;;;22.45;11.98;;;;;;;;;;4973840;28;20103;-78
2022/10/07 03:02:45;;;;;;;23.73;12.38;;;;;;;;;;4959085;28;20034;-77
2022/10/07 03:05:11;;;;;;;21.25;13.20;;;;;;;;;;4960084;28;20042;-77
2022/10/07 03:07:37;;;;;;;17.77;12.30;;;;;;;;;;4993023;28;20105;-78
2022/10/07 03:10:04;;;;;;;17.10;13.07;;;;;;;;;;5003305;28;20031;-78
2022/10/07 03:12:29;;;;;;;;;;;;;;;;;;4993557;28;20081;-78
2022/10/07 03:14:55;;;;;;;15.90;11.63;;;;;;;;;;4976616;28;19917;-78
2022/10/07 03:17:20;;;;;;;;;;;;;;;;;;4977498;28;20026;-80
2022/10/07 03:19:48;;;;;;;19.00;11.63;;;;;;;;;;4993719;28;19914;-79
2022/10/07 03:22:13;;;;;;;15.20;11.13;;;;;;;;;;4986078;28;20029;-79
2022/10/07 03:24:41;;;;;;;18.80;11.70;;;;;;;;;;4967331;28;20514;-79
2022/10/07 03:27:08;;;;;;;;;;;;;;;;;;4986931;28;20093;-79
2022/10/07 03:29:36;;;;;;;14.73;11.32;;;;;;;;;;4990045;28;19957;-79
2022/10/07 03:32:02;;;;;;;14.85;10.95;;;;;;;;;;4967031;28;20031;-79
2022/10/07 03:34:30;;;;;;;18.80;10.75;;;;;;;;;;4973859;28;20498;-79
2022/10/07 03:36:56;;;;;;;17.52;10.65;;;;;;;;;;4949800;28;20030;-79
2022/10/07 03:39:22;;;;;;;;;;;;;;;;;;4974372;28;20584;-78
2022/10/07 03:41:48;;;;;;;14.02;10.18;;;;;;;;;;4981967;28;19925;-78
2022/10/07 03:44:15;;;;;;;13.98;9.32;;;;;;;;;;4958481;28;20034;-78
2022/10/07 03:46:41;;;;;;;13.63;9.68;;;;;;;;;;4958642;28;20031;-78
2022/10/07 03:49:06;;;;;;;;;;;;;;;;;;4946737;28;20436;-79
2022/10/07 03:51:34;;;;;;;16.42;9.65;;;;;;;;;;4962281;28;19921;-79
2022/10/07 03:54:01;;;;;;;12.40;9.15;;;;;;;;;;4978117;28;20118;-77
2022/10/07 03:56:30;;;;;;;14.07;8.80;;;;;;;;;;4990654;28;20516;-79
2022/10/07 03:58:56;;;;;;;;;;;;;;;;;;4979605;28;20030;-78
2022/10/07 04:01:22;;;;;;;14.13;8.30;;;;;;;;;;4971006;28;19960;-78
2022/10/07 04:03:54;;;;;;;14.77;8.40;;;;;;;;;;4969153;28;20514;-79
2022/10/07 04:06:20;;;;;;;18.67;8.15;;;;;;;;;;4987728;28;20450;-79
2022/10/07 04:08:50;;;;;;;17.73;7.40;;;;;;;;;;4986477;28;20022;-82
2022/10/07 04:11:17;;;;;;;15.85;7.88;;;;;;;;;;4970633;28;20121;-78
2022/10/07 04:13:44;;;;;;;12.00;7.22;;;;;;;;;;4983395;28;20136;-81
2022/10/07 04:16:09;;;;;;;15.75;7.38;;;;;;;;;;4952720;28;20035;-78
2022/10/07 04:18:36;;;;;;;12.07;7.63;;;;;;;;;;4996895;28;20076;-78
2022/10/07 04:21:01;;;;;;;;;;;;;;;;;;4953726;28;20030;-78
2022/10/07 04:23:28;;;;;;;14.25;7.15;;;;;;;;;;4982653;28;19934;-77
2022/10/07 04:25:54;;;;;;;;;;;;;;;;;;4992345;28;20042;-78
2022/10/07 04:28:22;;;;;;;11.98;6.75;;;;;;;;;;4998541;28;19909;-78
2022/10/07 04:30:54;;;;;;;10.45;7.05;;;;;;;;;;4974790;28;20049;-80
2022/10/07 04:33:26;;;;;;;13.52;7.60;;;;;;;;;;4961506;28;20041;-79
2022/10/07 04:35:54;;;;;;;13.68;7.10;;;;;;;;;;4981010;28;20070;-79
2022/10/07 04:38:19;;;;;;;;;;;;;;;;;;4969950;28;20454;-77
2022/10/07 04:40:47;;;;;;;14.15;7.20;;;;;;;;;;4976254;28;19919;-79
2022/10/07 04:43:22;;;;;;;11.45;6.18;;;;;;;;;;4962970;28;20035;-79
2022/10/07 04:46:00;;;;;;;13.63;6.93;;;;;;;;;;4982757;28;20119;-79
2022/10/07 04:48:26;;;;;;;15.93;6.57;;;;;;;;;;4957482;28;20042;-79
2022/10/07 04:50:52;;;;;;;13.63;6.55;;;;;;;;;;4980837;28;20495;-79
2022/10/07 04:53:19;;;;;;;11.00;5.95;;;;;;;;;;4988382;28;20499;-77
2022/10/07 04:55:45;;;;;;;;;;;;;;;;;;4940152;29;20491;-78
2022/10/07 04:58:11;;;;;;;12.57;6.30;;;;;;;;;;4957022;28;19914;-78
2022/10/07 05:00:36;;;;;;;;;;;;;;;;;;4958669;29;20027;-80
2022/10/07 05:03:03;;;;;;;13.07;6.15;;;;;;;;;;4960553;28;19918;-79
2022/10/07 05:05:28;;;;;;;;;;;;;;;;;;4972004;28;20394;-79
2022/10/07 05:07:54;;;;;;;15.00;6.63;;;;;;;;;;4959332;28;20393;-76
2022/10/07 05:10:22;;;;;;;11.35;5.28;;;;;;;;;;4959215;28;20026;-79
2022/10/07 05:12:48;;;;;;;;;;;;;;;;;;4973437;28;20470;-79
2022/10/07 05:15:13;;;;;;;11.73;5.53;;;;;;;;;;4972181;28;19921;-76
2022/10/07 05:17:42;;;;;;;;;;;;;;;;;;4959146;28;20525;-78
2022/10/07 05:20:08;;;;;;;9.00;5.40;;;;;;;;;;4974558;28;20296;-78
2022/10/07 05:22:36;;;;;;;14.18;5.80;;;;;;;;;;4923028;29;20031;-78
2022/10/07 05:25:01;;;;;;;;;;;;;;;;;;4956816;28;20120;-78
2022/10/07 05:27:27;;;;;;;13.70;5.30;;;;;;;;;;4970499;28;19914;-78
2022/10/07 05:29:53;;;;;;;13.82;4.43;;;;;;;;;;4989693;28;20063;-78
2022/10/07 05:32:19;;;;;;;;;;;;;;;;;;4958289;28;20031;-79
2022/10/07 05:34:45;;;;;;;9.25;4.10;;;;;;;;;;4970448;28;20046;-79
2022/10/07 05:37:10;;;;;;;;;;;;;;;;;;4976737;28;20528;-80
2022/10/07 05:39:36;;;;;;;10.63;3.65;;;;;;;;;;4975812;28;19910;-81
2022/10/07 05:42:12;;;;;;;12.55;3.55;;;;;;;;;;5001988;28;20077;-77
2022/10/07 05:44:43;;;;;;;8.10;2.90;;;;;;;;;;4983512;28;20053;-78
2022/10/07 05:47:10;;;;;;;10.02;3.33;;;;;;;;;;4955683;28;20572;-78
2022/10/07 05:49:36;;;;;;;;;;;;;;;;;;4968099;28;20129;-78
2022/10/07 05:52:02;;;;;;;8.88;3.13;;;;;;;;;;4959331;28;20416;-78
2022/10/07 05:54:29;;;;;;;8.85;3.00;;;;;;;;;;4960007;28;20070;-79
2022/10/07 05:56:56;;;;;;;6.95;3.15;;;;;;;;;;4985407;28;20117;-79
2022/10/07 05:59:22;;;;;;;;;;;;;;;;;;4990197;28;20088;-78
2022/10/07 06:01:48;;;;;;;11.50;3.55;;;;;;;;;;4968826;28;19910;-78
2022/10/07 06:04:18;;;;;;;7.63;3.08;;;;;;;;;;4959330;28;20030;-78
2022/10/07 06:06:46;;;;;;;7.03;3.25;;;;;;;;;;4968552;28;20054;-79
2022/10/07 06:14:46;;;;;;;6.22;2.78;;;;;;;;;;4983264;28;20050;-80
2022/10/07 06:17:11;;;;;;;;;;;;;;;;;;4989293;28;20034;-78
2022/10/07 06:19:38;;;;;;;8.90;2.70;;;;;;;;;;4967690;28;19921;-78
2022/10/07 06:22:05;;;;;;;6.63;2.65;;;;;;;;;;4969406;28;20034;-79
2022/10/07 06:24:32;;;;;;;9.32;4.30;;;;;;;;;;4968366;28;20461;-80
2022/10/07 06:26:58;;;;;;;;;;;;;;;;;;4963121;28;20031;-79
2022/10/07 06:29:24;;;;;;;9.73;2.97;;;;;;;;;;4981673;28;20366;-80
2022/10/07 06:31:49;;;;;;;;;;;;;;;;;;4977121;28;20037;-78
2022/10/07 06:34:15;;;;;;;10.95;3.40;;;;;;;;;;4981317;28;20385;-79
2022/10/07 06:36:41;;;;;;;;;;;;;;;;;;4985150;28;20041;-79
2022/10/07 06:39:06;;;;;;;11.90;2.65;;;;;;;;;;4981279;28;20353;-79
2022/10/07 06:41:37;;;;;;;9.30;2.85;;;;;;;;;;4975553;28;20069;-80
2022/10/07 06:44:20;;;;;;;10.85;3.08;;;;;;;;;;4967676;28;20031;-79
2022/10/07 06:46:46;;;;;;;;;;;;;;;;;;4960221;28;20026;-79
2022/10/07 06:49:12;;;;;;;10.07;2.88;;;;;;;;;;4992815;28;19909;-80
2022/10/07 06:51:37;;;;;;;;;;;;;;;;;;4983669;28;20030;-78
2022/10/07 06:54:03;;;;;;;8.57;2.45;;;;;;;;;;4974174;28;19914;-79
2022/10/07 06:56:30;;;;;;;10.68;2.28;;;;;;;;;;4957308;28;20034;-79
2022/10/07 06:58:56;;;;;;;6.03;2.00;;;;;;;;;;4962007;28;20027;-80
2022/10/07 07:01:32;;;;;;;7.53;2.40;;;;;;;;;;4960378;28;20553;-80
2022/10/07 07:03:58;;;;;;;6.90;2.20;;;;;;;;;;4989488;28;20407;-79
2022/10/07 07:06:24;;;;;;;;;;;;;;;;;;4990204;28;20042;-80
2022/10/07 07:08:49;;;;;;;9.65;2.33;;;;;;;;;;4995264;28;19920;-79
2022/10/07 07:11:35;;;;;;;14.88;2.60;;;;;;;;;;4974235;28;20029;-79
2022/10/07 07:14:10;;;;;;;10.02;2.60;;;;;;;;;;4968004;28;20038;-79
2022/10/07 07:16:39;;;;;;;7.22;2.05;;;;;;;;;;4990247;28;20504;-79
2022/10/07 07:19:04;;;;;;;;;;;;;;;;;;4990909;28;20023;-79
2022/10/07 07:21:32;;;;;;;9.35;2.70;;;;;;;;;;4984428;28;20315;-79
2022/10/07 07:23:58;;;;;;;8.20;2.40;;;;;;;;;;4975349;28;20062;-78
2022/10/07 07:26:23;;;;;;;;;;;;;;;;;;4973631;28;20039;-78
2022/10/07 07:28:50;;;;;;;7.95;2.25;;;;;;;;;;4986598;28;20326;-78
2022/10/07 07:31:16;;;;;;;13.55;2.42;;;;;;;;;;4987812;28;20034;-79
2022/10/07 07:33:41;;;;;;;;;;;;;;;;;;4979150;28;20225;-80
2022/10/07 07:36:14;;;;;;;9.40;2.17;;;;;;;;;;4974888;28;20293;-80
2022/10/07 07:38:51;;;;;;;9.60;2.75;;;;;;;;;;4985641;28;20094;-79
2022/10/07 07:41:17;;;;;;;6.75;2.20;;;;;;;;;;4981809;28;20027;-79
2022/10/07 07:43:46;;;;;;;7.65;2.42;;;;;;;;;;4990438;28;20110;-78
2022/10/07 07:46:12;;;;;;;6.38;2.30;;;;;;;;;;4960474;28;20068;-78
2022/10/07 07:48:38;;;;;;;9.02;2.03;;;;;;;;;;4976667;28;20026;-79
2022/10/07 07:51:04;;;;;;;;;;;;;;;;;;4993370;28;20406;-78
2022/10/07 07:53:29;;;;;;;7.53;2.53;;;;;;;;;;4993325;28;19917;-80
2022/10/07 07:55:55;;;;;;;7.43;2.38;;;;;;;;;;4963866;28;20049;-78
2022/10/07 07:58:23;;;;;;;11.05;2.50;;;;;;;;;;4975859;28;20089;-79
2022/10/07 08:00:56;;;;;;;11.40;2.53;;;;;;;;;;4947601;28;20058;-79
2022/10/07 08:03:22;;;;;;;7.85;3.03;;;;;;;;;;4973594;28;20034;-80
2022/10/07 08:05:48;;;;;;;;;;;;;;;;;;4959526;28;20085;-80
2022/10/07 08:08:13;;;;;;;7.93;2.88;;;;;;;;;;4988773;28;19918;-77
2022/10/07 08:10:41;;;;;;;;;;;;;;;;;;4975351;28;20080;-78
2022/10/07 08:13:08;;;;;;;8.90;2.38;;;;;;;;;;4988900;28;20400;-79
2022/10/07 08:15:34;;;;;;;7.82;2.05;;;;;;;;;;4989568;28;20038;-79
2022/10/07 08:18:02;;;;;;;;;;;;;;;;;;4957237;28;20510;-79
2022/10/07 08:20:27;;;;;;;9.18;2.70;;;;;;;;;;4990252;28;19910;-78
2022/10/07 08:22:53;;;;;;;;;;;;;;;;;;4971924;28;20049;-78
2022/10/07 08:25:21;;;;;;;8.02;2.30;;;;;;;;;;4966688;28;20297;-79
2022/10/07 08:27:48;;;;;;;11.55;2.58;;;;;;;;;;4986475;28;20065;-79
2022/10/07 08:30:13;;;;;;;;;;;;;;;;;;4990629;28;20066;-80
2022/10/07 08:32:39;;;;;;;6.55;2.20;;;;;;;;;;4989685;28;19921;-79
2022/10/07 08:35:04;;;;;;;;;;;;;;;;;;4945717;28;20057;-81
2022/10/07 08:37:30;;;;;;;8.88;2.40;;;;;;;;;;4987672;28;19913;-79
2022/10/07 08:39:55;;;;;;;;;;;;;;;;;;4973378;28;20395;-79
2022/10/07 08:42:34;;;;;;;8.68;2.22;;;;;;;;;;4980573;28;19969;-79
2022/10/07 08:44:59;;;;;;;10.20;2.70;;;;;;;;;;4975002;28;20038;-80
2022/10/07 08:47:24;;;;;;;;;;;;;;;;;;4974265;28;20030;-80
2022/10/07 08:50:01;;;;;;;9.18;2.40;;;;;;;;;;4977385;28;19914;-79
2022/10/07 08:52:31;;;;;;;8.27;2.22;;;;;;;;;;4982726;28;20046;-80
2022/10/07 08:54:58;;;;;;;8.43;2.28;;;;;;;;;;4980364;28;20039;-81
2022/10/07 08:57:26;;;;;;;8.88;2.38;;;;;;;;;;4974324;28;20062;-80
2022/10/07 08:59:53;;;;;;;9.07;2.28;;;;;;;;;;4990237;28;20018;-78
2022/10/07 09:02:57;;;;;;;8.50;2.28;;;;;;;;;;4976769;28;20061;-81
2022/10/07 09:05:28;;;;;;;8.10;2.20;;;;;;;;;;4911468;29;20047;-78
2022/10/07 09:07:56;;;;;;;9.13;2.28;;;;;;;;;;4895996;29;20079;-80
2022/10/07 09:10:30;;;;;;;9.00;2.22;;;;;;;;;;4942769;28;20062;-81
2022/10/07 09:12:57;;;;;;;8.60;2.25;;;;;;;;;;4971101;28;20042;-78
2022/10/07 09:15:29;;;;;;;8.80;2.10;;;;;;;;;;4975514;28;20039;-82
2022/10/07 09:17:58;;;;;;;7.53;2.13;;;;;;;;;;4991274;28;20035;-82
2022/10/07 09:20:34;;;;;;;5.88;1.90;;;;;;;;;;4958487;28;20027;-78
2022/10/07 09:22:59;;;;;;;5.03;1.80;;;;;;;;;;4951839;28;20038;-79
2022/10/07 09:25:25;;;;;;;;;;;;;;;;;;4970901;28;20031;-78
2022/10/07 09:27:51;;;;;;;8.90;2.25;;;;;;;;;;4985077;28;19914;-78
2022/10/07 09:30:16;;;;;;;;;;;;;;;;;;4971061;28;20434;-78
2022/10/07 09:32:45;;;;;;;5.40;1.50;;;;;;;;;;4971416;28;19914;-78
2022/10/07 09:35:18;;;;;;;6.53;1.80;;;;;;;;;;4955900;28;20488;-80
2022/10/07 09:38:06;;;;;;;8.75;2.45;;;;;;;;;;4980600;28;20030;-80
2022/10/07 09:40:33;;;;;;;8.48;2.30;;;;;;;;;;4985496;28;20450;-83
2022/10/07 09:42:59;;;;;;;8.65;2.35;;;;;;;;;;4985886;28;20085;-82
2022/10/07 09:45:25;;;;;;;;;;;;;;;;;;4961675;28;20454;-78
2022/10/07 09:47:53;;;;;;;9.80;2.20;;;;;;;;;;4977080;28;19917;-82
2022/10/07 09:50:32;;;;;;;7.65;2.00;;;;;;;;;;4971484;28;20038;-80
2022/10/07 09:52:58;;;;;;;9.18;2.17;;;;;;;;;;4977800;28;20034;-80
2022/10/07 09:55:25;;;;;;;;;;;;;;;;;;4978532;28;20125;-80
2022/10/07 09:57:57;;;;;;;9.55;2.00;;;;;;;;;;4996326;28;19918;-81
2022/10/07 10:00:24;;;;;;;9.32;2.08;;;;;;;;;;4974811;28;20110;-80
2022/10/07 10:02:51;;;;;;;7.07;2.00;;;;;;;;;;4977704;28;20022;-80
2022/10/07 10:05:24;;;;;;;10.07;2.25;;;;;;;;;;4973360;28;20454;-80
2022/10/07 10:07:53;;;;;;;7.70;2.10;;;;;;;;;;4978836;28;20034;-78
2022/10/07 10:10:23;;;;;;;7.35;1.90;;;;;;;;;;4976983;28;20045;-80
2022/10/07 10:12:52;;;;;;;9.18;2.03;;;;;;;;;;4959994;28;20041;-80
2022/10/07 10:15:24;;;;;;;8.65;2.15;;;;;;;;;;4977612;28;20036;-80
2022/10/07 10:17:50;;;;;;;5.35;1.83;;;;;;;;;;4992182;28;20038;-81
2022/10/07 10:20:15;;;;;;;;;;;;;;;;;;4959125;28;20033;-79
2022/10/07 10:22:41;;;;;;;9.07;1.98;;;;;;;;;;4988171;28;20405;-83
2022/10/07 10:27:56;;;;;;;6.50;2.00;;;;;;;;;;4988117;28;20050;-81
2022/10/07 10:30:21;;;;;;;6.30;2.22;;;;;;;;;;4971231;28;20023;-80
2022/10/07 10:32:47;;;;;;;;;;;;;;;;;;4980620;28;20506;-81
2022/10/07 10:35:15;;;;;;;7.05;2.10;;;;;;;;;;4992102;28;19930;-83
2022/10/07 10:38:00;;;;;;;9.63;2.20;;;;;;;;;;4992034;28;20034;-79
2022/10/07 10:40:45;;;;;;;10.75;2.42;;;;;;;;;;5002773;28;20030;-82
2022/10/07 10:43:20;;;;;;;12.48;2.53;;;;;;;;;;4976746;28;20047;-80
2022/10/07 10:45:50;;;;;;;8.32;1.90;;;;;;;;;;4963685;28;20041;-81
2022/10/07 10:48:34;;;;;;;9.13;2.03;;;;;;;;;;4975135;28;20037;-80
2022/10/07 10:51:44;;;;;;;10.13;2.17;;;;;;;;;;4990960;28;20049;-81
2022/10/07 10:54:16;;;;;;;8.60;2.38;;;;;;;;;;4969390;28;20096;-79
2022/10/07 10:56:54;;;;;;;10.70;2.40;;;;;;;;;;4988393;28;20037;-83
2022/10/07 10:59:20;;;;;;;10.07;2.28;;;;;;;;;;4966248;28;20041;-80
2022/10/07 11:01:45;;;;;;;;;;;;;;;;;;4975426;28;20478;-81
2022/10/07 11:04:23;;;;;;;7.97;2.33;;;;;;;;;;4976586;28;20294;-80
2022/10/07 11:06:51;;;;;;;6.88;2.10;;;;;;;;;;4975406;28;20035;-79
2022/10/07 11:09:21;;;;;;;11.73;2.42;;;;;;;;;;4987580;28;20398;-81
2022/10/07 11:11:46;;;;;;;6.97;1.83;;;;;;;;;;4973245;28;20417;-80
2022/10/07 11:14:11;;;;;;;;;;;;;;;;;;4983869;28;20026;-83
2022/10/07 11:16:38;;;;;;;10.05;2.28;;;;;;;;;;4979180;28;19918;-80
2022/10/07 11:19:05;;;;;;;10.25;2.15;;;;;;;;;;4980149;28;20495;-80
2022/10/07 11:21:36;;;;;;;7.38;2.22;;;;;;;;;;4964604;28;20125;-81
2022/10/07 11:24:14;;;;;;;8.75;2.30;;;;;;;;;;4976004;28;20042;-81
2022/10/07 11:26:42;;;;;;;8.23;2.33;;;;;;;;;;4974984;28;20035;-79
2022/10/07 11:29:17;;;;;;;8.10;2.10;;;;;;;;;;4977033;28;20030;-81
2022/10/07 11:31:43;;;;;;;7.68;2.20;;;;;;;;;;4996319;28;20034;-80
2022/10/07 11:34:22;;;;;;;8.88;2.10;;;;;;;;;;4991499;28;20051;-80
2022/10/07 11:36:55;;;;;;;10.02;2.35;;;;;;;;;;4984107;28;20050;-80
2022/10/07 11:39:22;;;;;;;9.35;1.92;;;;;;;;;;4967738;28;20080;-80
2022/10/07 11:41:53;;;;;;;6.63;1.75;;;;;;;;;;4927357;29;20097;-79
2022/10/07 11:44:23;;;;;;;9.90;2.53;;;;;;;;;;4968571;28;20034;-81
2022/10/07 11:46:49;;;;;;;6.45;1.70;;;;;;;;;;4977808;28;20129;-79
2022/10/07 11:49:14;;;;;;;;;;;;;;;;;;4975705;28;20077;-79
2022/10/07 11:51:49;;;;;;;9.73;1.80;;;;;;;;;;4966880;28;19914;-79
2022/10/07 11:54:15;;;;;;;10.38;1.98;;;;;;;;;;4962127;28;20053;-80
2022/10/07 11:56:44;;;;;;;6.50;1.88;;;;;;;;;;4977845;28;20437;-81
2022/10/07 11:59:23;;;;;;;9.30;1.88;;;;;;;;;;4975322;28;20027;-81
2022/10/07 12:01:51;;;;;;;7.60;1.98;;;;;;;;;;4963321;28;20110;-80
2022/10/07 12:04:28;;;;;;;8.32;1.90;;;;;;;;;;4988175;28;20081;-79
2022/10/07 12:07:13;;;;;;;7.20;2.03;;;;;;;;;;4958186;29;20032;-80
2022/10/07 12:10:06;;;;;;;7.35;2.28;;;;;;;;;;4982051;28;20030;-80
2022/10/07 12:12:43;;;;;;;9.50;2.42;;;;;;;;;;4960288;28;20034;-81
2022/10/07 12:15:23;;;;;;;7.65;2.03;;;;;;;;;;4964074;28;20567;-81
2022/10/07 12:17:53;;;;;;;10.02;2.08;;;;;;;;;;4977976;28;20035;-79
2022/10/07 12:20:34;;;;;;;8.07;2.53;;;;;;;;;;4965905;28;20030;-81
2022/10/07 12:23:31;;;;;;;8.32;2.20;;;;;;;;;;4970731;28;20035;-83
2022/10/07 12:26:24;;;;;;;7.63;2.05;;;;;;;;;;4955565;28;20039;-82
2022/10/07 12:28:50;;;;;;;7.55;2.10;;;;;;;;;;4980187;28;20515;-82
2022/10/07 12:31:22;;;;;;;;;;;;;;;;;;4968002;28;20027;-81
2022/10/07 12:33:57;;;;;;;9.15;1.95;;;;;;;;;;4982083;28;19922;-80
2022/10/07 12:36:24;;;;;;;9.13;1.90;;;;;;;;;;4967088;28;20081;-80
2022/10/07 12:39:00;;;;;;;7.88;1.98;;;;;;;;;;4955207;28;20026;-80
2022/10/07 12:41:29;;;;;;;5.55;2.00;;;;;;;;;;4972177;28;20035;-80
2022/10/07 12:44:03;;;;;;;6.85;1.75;;;;;;;;;;4981394;28;20054;-80
2022/10/07 12:46:30;;;;;;;7.80;2.17;;;;;;;;;;4982628;28;20418;-81
2022/10/07 12:48:58;;;;;;;8.30;1.77;;;;;;;;;;4980966;28;20398;-81
2022/10/07 12:51:26;;;;;;;7.18;2.33;;;;;;;;;;4999484;28;20053;-80
2022/10/07 12:53:51;;;;;;;8.10;2.03;;;;;;;;;;4997962;28;20097;-80
2022/10/07 12:56:19;;;;;;;8.10;2.13;;;;;;;;;;4956827;28;20489;-81
2022/10/07 13:01:48;;;;;;;9.63;2.15;;;;;;;;;;4984215;28;20035;-80
2022/10/07 13:04:27;;;;;;;10.50;1.90;;;;;;;;;;4974820;28;20038;-80
2022/10/07 13:06:59;;;;;;;8.85;2.13;;;;;;;;;;4949772;28;20038;-81
2022/10/07 13:09:43;;;;;;;7.28;2.00;;;;;;;;;;4995616;28;20039;-81
2022/10/07 13:12:22;;;;;;;7.43;1.80;;;;;;;;;;4979980;28;20042;-82
2022/10/07 13:15:00;;;;;;;7.28;2.10;;;;;;;;;;4976451;28;20035;-80
2022/10/07 13:17:35;;;;;;;10.80;2.30;;;;;;;;;;4985223;28;20046;-81
2022/10/07 13:20:05;;;;;;;9.77;2.38;;;;;;;;;;4986375;28;20398;-82
2022/10/07 13:22:30;;;;;;;6.75;1.98;;;;;;;;;;4980929;28;20494;-82
2022/10/07 13:24:56;;;;;;;;;;;;;;;;;;4983338;28;20045;-81
2022/10/07 13:27:31;;;;;;;10.38;2.10;;;;;;;;;;4984221;28;19910;-83
2022/10/07 13:29:57;;;;;;;11.63;2.50;;;;;;;;;;4978409;28;20071;-79
2022/10/07 13:32:24;;;;;;;8.40;2.15;;;;;;;;;;4971867;28;20025;-79
2022/10/07 13:34:51;;;;;;;9.13;2.78;;;;;;;;;;4947635;29;20503;-80
2022/10/07 13:37:26;;;;;;;10.57;2.38;;;;;;;;;;4945121;28;20487;-79
2022/10/07 13:39:52;;;;;;;9.00;1.88;;;;;;;;;;4978395;28;20035;-81
2022/10/07 13:42:17;;;;;;;;;;;;;;;;;;4965811;28;20037;-80
2022/10/07 13:44:43;;;;;;;7.97;1.95;;;;;;;;;;4995307;28;19918;-81
2022/10/07 13:47:10;;;;;;;;;;;;;;;;;;4994759;28;20037;-79
2022/10/07 13:49:46;;;;;;;8.23;1.95;;;;;;;;;;4996149;28;19966;-80
2022/10/07 13:52:42;;;;;;;8.80;2.35;;;;;;;;;;4963413;28;20077;-81
2022/10/07 13:55:27;;;;;;;7.25;1.98;;;;;;;;;;4950587;28;20039;-82
2022/10/07 13:57:55;;;;;;;5.60;2.20;;;;;;;;;;4981772;28;20031;-80
2022/10/07 14:00:24;;;;;;;8.65;2.35;;;;;;;;;;4954286;28;20030;-79
2022/10/07 14:02:50;;;;;;;12.90;2.53;;;;;;;;;;4963661;29;20035;-83
2022/10/07 14:05:18;;;;;;;11.07;2.08;;;;;;;;;;4979530;28;20037;-81
2022/10/07 14:07:43;;;;;;;9.02;2.05;;;;;;;;;;4984746;28;20091;-80
2022/10/07 14:10:10;;;;;;;;;;;;;;;;;;4963937;29;20023;-80
2022/10/07 14:12:35;;;;;;;9.35;2.00;;;;;;;;;;4988955;28;19918;-83
2022/10/07 14:15:00;;;;;;;;;;;;;;;;;;4979072;28;20117;-80
2022/10/07 14:17:32;;;;;;;8.98;2.45;;;;;;;;;;4985275;28;19945;-81
2022/10/07 14:20:00;;;;;;;8.27;2.00;;;;;;;;;;4952404;29;20037;-81
2022/10/07 14:22:30;;;;;;;7.53;2.00;;;;;;;;;;4980938;28;20037;-80
2022/10/07 14:24:57;;;;;;;7.90;2.13;;;;;;;;;;4961835;29;20035;-79
2022/10/07 14:27:41;;;;;;;7.93;2.15;;;;;;;;;;4957132;28;20031;-80
2022/10/07 14:30:25;;;;;;;6.13;1.80;;;;;;;;;;4979846;28;20066;-81
2022/10/07 14:35:43;;;;;;;8.57;1.90;;;;;;;;;;4992996;28;20035;-83
2022/10/07 14:38:18;;;;;;;7.18;1.80;;;;;;;;;;4956310;28;20438;-80
2022/10/07 14:40:44;;;;;;;8.73;2.20;;;;;;;;;;4976274;28;20043;-83
2022/10/07 14:43:09;;;;;;;;;;;;;;;;;;4976349;28;20084;-80
2022/10/07 14:45:35;;;;;;;7.43;2.17;;;;;;;;;;4978015;28;19914;-81
2022/10/07 14:48:00;;;;;;;;;;;;;;;;;;4979340;28;20030;-82
2022/10/07 14:50:29;;;;;;;12.60;2.67;;;;;;;;;;4974672;28;19918;-80
2022/10/07 14:52:55;;;;;;;8.57;2.60;;;;;;;;;;4965478;28;20039;-79
2022/10/07 14:55:20;;;;;;;;;;;;;;;;;;4963985;28;20130;-82
2022/10/07 14:57:47;;;;;;;10.00;2.42;;;;;;;;;;4986155;28;19909;-80
2022/10/07 15:00:12;;;;;;;;;;;;;;;;;;4964813;28;20069;-80
2022/10/07 15:02:39;;;;;;;13.32;2.55;;;;;;;;;;4974813;28;19919;-82
2022/10/07 15:05:04;;;;;;;13.50;2.83;;;;;;;;;;4974287;28;20035;-83
2022/10/07 15:07:35;;;;;;;10.13;2.58;;;;;;;;;;4973845;28;20023;-83
2022/10/07 15:10:01;;;;;;;11.85;2.42;;;;;;;;;;4940992;28;20153;-80
2022/10/07 15:12:26;;;;;;;;;;;;;;;;;;4970869;28;20066;-85
2022/10/07 15:14:56;;;;;;;11.00;2.55;;;;;;;;;;4990203;28;19953;-83
2022/10/07 15:17:22;;;;;;;;;;;;;;;;;;4973922;28;20034;-80
2022/10/07 15:19:49;;;;;;;8.05;2.40;;;;;;;;;;4982930;28;19977;-82
2022/10/07 15:22:16;;;;;;;10.32;3.13;;;;;;;;;;4988984;28;20054;-82
2022/10/07 15:24:42;;;;;;;8.52;2.70;;;;;;;;;;4976464;28;20503;-84